createdAt,value
2023-05-19T00:01:15.335Z,79.80
2023-05-19T00:04:05.157Z,80.75
2023-05-19T00:06:32.900Z,81.20
2023-05-19T00:09:01.987Z,81.86
2023-05-19T00:11:29.529Z,82.49
2023-05-19T00:13:59.130Z,83.78
2023-05-19T00:16:28.161Z,84.43
2023-05-19T00:18:55.404Z,83.92
2023-05-19T00:21:22.098Z,85.26
2023-05-19T00:23:49.131Z,85.88
2023-05-19T00:26:15.811Z,86.34
2023-05-19T00:28:51.414Z,87.63
2023-05-19T00:31:18.512Z,87.33
2023-05-19T00:33:45.398Z,87.46
2023-05-19T00:36:12.896Z,88.19
2023-05-19T00:38:39.748Z,88.34
2023-05-19T00:41:07.092Z,89.05
2023-05-19T00:43:37.093Z,89.34
2023-05-19T00:46:04.437Z,89.19
2023-05-19T00:48:31.079Z,90.33
2023-05-19T00:51:04.908Z,90.21
2023-05-19T00:53:33.769Z,91.00
2023-05-19T00:56:01.689Z,91.28
2023-05-19T00:58:30.484Z,92.60
2023-05-19T01:01:07.310Z,92.95
2023-05-19T01:03:35.822Z,92.64
2023-05-19T01:06:07.350Z,93.86
2023-05-19T01:08:38.380Z,95.12
2023-05-19T01:11:06.805Z,96.46
2023-05-19T01:13:38.147Z,95.81
2023-05-19T01:16:12.785Z,97.51
2023-05-19T01:18:40.091Z,96.19
2023-05-19T01:21:45.150Z,96.46
2023-05-19T01:24:39.951Z,97.14
2023-05-19T01:27:33.738Z,97.49
2023-05-19T01:30:25.652Z,97.25
2023-05-19T01:32:59.866Z,98.46
2023-05-19T01:35:28.012Z,97.64
2023-05-19T01:37:59.386Z,97.95
2023-05-19T01:40:27.323Z,98.15
2023-05-19T01:42:57.821Z,98.28
2023-05-19T01:45:28.686Z,98.80
2023-05-19T01:47:57.873Z,98.05
2023-05-19T01:50:26.019Z,99.18
2023-05-19T01:52:52.736Z,98.40
2023-05-19T01:55:21.243Z,98.84
2023-05-19T01:57:50.998Z,99.13
2023-05-19T02:00:26.759Z,99.46
2023-05-19T02:03:15.520Z,99.64
2023-05-19T02:06:22.828Z,97.93
2023-05-19T02:09:16.078Z,99.52
2023-05-19T02:11:54.692Z,99.84
2023-05-19T02:14:30.152Z,100.00
2023-05-19T02:16:59.096Z,98.96
2023-05-19T02:19:29.356Z,99.32
2023-05-19T02:21:57.017Z,99.40
2023-05-19T02:24:23.842Z,100.00
2023-05-19T02:26:52.121Z,100.00
2023-05-19T02:29:21.806Z,100.00
2023-05-19T02:31:50.343Z,100.00
2023-05-19T02:34:17.004Z,100.00
2023-05-19T02:36:43.695Z,100.00
2023-05-19T02:39:11.122Z,100.00
2023-05-19T02:41:39.643Z,100.00
2023-05-19T02:44:06.402Z,100.00
2023-05-19T02:46:34.107Z,100.00
2023-05-19T02:49:00.782Z,100.00
2023-05-19T02:51:27.722Z,100.00
2023-05-19T02:53:54.557Z,100.00
2023-05-19T02:56:21.740Z,100.00
2023-05-19T02:58:48.418Z,100.00
2023-05-19T03:01:15.815Z,100.00
2023-05-19T03:03:42.569Z,100.00
2023-05-19T03:06:09.515Z,100.00
2023-05-19T03:08:40.132Z,100.00
2023-05-19T03:11:09.257Z,100.00
2023-05-19T03:13:35.877Z,100.00
2023-05-19T03:16:03.469Z,100.00
2023-05-19T03:18:30.666Z,100.00
2023-05-19T03:20:57.716Z,100.00
2023-05-19T03:23:24.771Z,100.00
2023-05-19T03:25:51.681Z,100.00
2023-05-19T03:28:18.314Z,100.00
2023-05-19T03:30:45.247Z,100.00
2023-05-19T03:33:17.279Z,100.00
2023-05-19T03:35:44.780Z,100.00
2023-05-19T03:38:12.171Z,100.00
2023-05-19T03:40:41.809Z,100.00
2023-05-19T03:43:11.052Z,100.00
2023-05-19T03:45:45.398Z,100.00
2023-05-19T03:48:32.723Z,100.00
2023-05-19T03:51:23.223Z,100.00
2023-05-19T03:53:53.246Z,100.00
2023-05-19T03:56:23.030Z,100.00
2023-05-19T03:58:49.927Z,100.00
2023-05-19T04:01:16.606Z,100.00
2023-05-19T04:03:43.512Z,100.00
2023-05-19T04:06:10.155Z,100.00
2023-05-19T04:08:36.888Z,100.00
2023-05-19T04:11:04.606Z,100.00
2023-05-19T04:13:33.967Z,100.00
2023-05-19T04:16:01.431Z,100.00
2023-05-19T04:18:29.196Z,100.00
2023-05-19T04:20:56.239Z,100.00
2023-05-19T04:23:23.224Z,100.00
2023-05-19T04:25:50.055Z,100.00
2023-05-19T04:28:18.204Z,100.00
2023-05-19T04:30:46.536Z,100.00
2023-05-19T04:33:13.962Z,100.00
2023-05-19T04:35:42.130Z,100.00
2023-05-19T04:38:12.026Z,100.00
2023-05-19T04:40:40.413Z,100.00
2023-05-19T04:43:09.495Z,100.00
2023-05-19T04:45:37.725Z,100.00
2023-05-19T04:48:05.333Z,100.00
2023-05-19T04:50:32.769Z,97.42
2023-05-19T04:53:00.480Z,91.14
2023-05-19T04:55:27.589Z,88.34
2023-05-19T04:57:54.235Z,86.33
2023-05-19T05:00:23.022Z,83.35
2023-05-19T05:02:57.679Z,83.69
2023-05-19T05:05:26.064Z,85.86
2023-05-19T05:07:54.055Z,89.95
2023-05-19T05:10:22.339Z,92.21
2023-05-19T05:12:49.839Z,90.61
2023-05-19T05:15:17.501Z,84.84
2023-05-19T05:17:46.674Z,81.34
2023-05-19T05:20:14.350Z,79.31
2023-05-19T05:22:42.107Z,77.11
2023-05-19T05:25:10.050Z,75.45
2023-05-19T05:27:37.773Z,74.63
2023-05-19T05:30:06.911Z,73.39
2023-05-19T05:32:33.989Z,72.62
2023-05-19T05:35:03.230Z,70.80
2023-05-19T05:37:31.181Z,70.59
2023-05-19T05:39:57.936Z,71.07
2023-05-19T05:42:25.325Z,72.07
2023-05-19T05:44:53.033Z,70.89
2023-05-19T05:47:20.225Z,68.22
2023-05-19T05:49:48.740Z,70.28
2023-05-19T05:52:19.737Z,68.88
2023-05-19T05:54:51.179Z,69.05
2023-05-19T05:57:19.960Z,68.55
2023-05-19T05:59:47.321Z,68.02
2023-05-19T06:02:14.794Z,68.72
2023-05-19T06:04:41.762Z,70.64
2023-05-19T06:07:08.937Z,70.83
2023-05-19T06:09:37.965Z,70.39
2023-05-19T06:12:07.350Z,70.67
2023-05-19T06:14:39.799Z,69.42
2023-05-19T06:17:36.124Z,67.23
2023-05-19T06:20:05.519Z,65.15
2023-05-19T06:22:32.376Z,63.85
2023-05-19T06:25:00.700Z,62.58
2023-05-19T06:27:27.643Z,62.40
2023-05-19T06:29:54.474Z,63.30
2023-05-19T06:32:21.521Z,64.07
2023-05-19T06:34:54.293Z,64.44
2023-05-19T06:37:24.285Z,63.93
2023-05-19T06:39:53.046Z,63.20
2023-05-19T06:42:24.153Z,63.14
2023-05-19T06:45:11.014Z,61.49
2023-05-19T06:47:40.939Z,60.12
2023-05-19T06:50:08.991Z,59.63
2023-05-19T06:52:37.732Z,59.68
2023-05-19T06:55:04.827Z,59.70
2023-05-19T06:57:32.744Z,59.37
2023-05-19T07:00:01.202Z,59.92
2023-05-19T07:02:28.347Z,60.51
2023-05-19T07:04:55.418Z,61.42
2023-05-19T07:07:22.692Z,61.19
2023-05-19T07:09:50.367Z,59.32
2023-05-19T07:12:17.837Z,58.93
2023-05-19T07:14:44.751Z,58.38
2023-05-19T07:17:12.923Z,58.39
2023-05-19T07:19:43.792Z,58.88
2023-05-19T07:22:10.511Z,55.05
2023-05-19T07:24:37.238Z,53.96
2023-05-19T07:27:04.413Z,54.66
2023-05-19T07:29:31.410Z,55.23
2023-05-19T07:31:58.566Z,55.40
2023-05-19T07:34:25.338Z,55.48
2023-05-19T07:36:52.191Z,53.37
2023-05-19T07:39:19.337Z,51.25
2023-05-19T07:41:52.577Z,50.96
2023-05-19T07:44:19.394Z,51.05
2023-05-19T07:46:46.250Z,49.85
2023-05-19T07:49:13.037Z,49.23
2023-05-19T07:51:41.995Z,50.06
2023-05-19T07:54:08.955Z,50.22
2023-05-19T07:56:35.715Z,49.36
2023-05-19T07:59:04.773Z,48.25
2023-05-19T08:01:32.950Z,48.61
2023-05-19T08:04:00.231Z,48.57
2023-05-19T08:06:28.076Z,48.13
2023-05-19T08:08:54.690Z,48.13
2023-05-19T08:11:21.633Z,45.92
2023-05-19T08:13:51.775Z,46.62
2023-05-19T08:16:18.746Z,46.47
2023-05-19T08:18:45.524Z,47.34
2023-05-19T08:21:12.340Z,47.11
2023-05-19T08:23:39.100Z,46.90
2023-05-19T08:26:05.843Z,45.86
2023-05-19T08:28:33.602Z,45.25
2023-05-19T08:31:00.534Z,45.87
2023-05-19T08:33:27.384Z,45.48
2023-05-19T08:35:57.574Z,45.69
2023-05-19T08:38:28.224Z,45.00
2023-05-19T08:40:55.247Z,43.07
2023-05-19T08:43:22.151Z,43.44
2023-05-19T08:45:48.913Z,43.44
2023-05-19T08:48:18.338Z,44.20
2023-05-19T08:51:00.619Z,43.44
2023-05-19T08:53:36.697Z,43.47
2023-05-19T08:56:17.971Z,42.92
2023-05-19T08:58:46.024Z,42.79
2023-05-19T09:01:17.117Z,41.29
2023-05-19T09:03:47.486Z,42.38
2023-05-19T09:06:14.472Z,42.38
2023-05-19T09:08:42.540Z,40.88
2023-05-19T09:11:10.263Z,42.66
2023-05-19T09:13:36.970Z,43.24
2023-05-19T09:16:04.560Z,43.41
2023-05-19T09:18:31.892Z,43.09
2023-05-19T09:21:03.217Z,41.22
2023-05-19T09:23:34.133Z,42.14
2023-05-19T09:26:07.767Z,41.73
2023-05-19T09:28:36.364Z,42.24
2023-05-19T09:31:09.975Z,43.59
2023-05-19T09:33:45.500Z,45.32
2023-05-19T09:36:13.629Z,45.99
2023-05-19T09:38:40.521Z,47.94
2023-05-19T09:41:09.171Z,46.70
2023-05-19T09:43:36.381Z,45.30
2023-05-19T09:46:09.218Z,41.61
2023-05-19T09:48:37.589Z,40.44
2023-05-19T09:51:07.577Z,40.87
2023-05-19T09:53:34.803Z,42.38
2023-05-19T09:56:02.422Z,42.00
2023-05-19T09:58:37.063Z,42.55
2023-05-19T10:01:05.359Z,43.46
2023-05-19T10:03:33.475Z,43.49
2023-05-19T10:06:04.968Z,44.03
2023-05-19T10:08:33.726Z,42.51
2023-05-19T10:11:01.079Z,38.45
2023-05-19T10:13:29.703Z,39.51
2023-05-19T10:15:59.788Z,39.68
2023-05-19T10:18:27.909Z,39.86
2023-05-19T10:20:56.076Z,41.34
2023-05-19T10:23:24.040Z,41.26
2023-05-19T10:25:54.792Z,41.16
2023-05-19T10:28:25.411Z,41.78
2023-05-19T10:30:56.834Z,41.88
2023-05-19T10:33:43.763Z,41.56
2023-05-19T10:36:35.413Z,40.77
2023-05-19T10:39:09.827Z,40.42
2023-05-19T10:42:08.946Z,40.51
2023-05-19T10:44:54.553Z,41.29
2023-05-19T10:47:25.453Z,40.51
2023-05-19T10:49:55.912Z,41.63
2023-05-19T10:52:29.625Z,42.16
2023-05-19T10:54:58.400Z,41.54
2023-05-19T10:57:32.156Z,41.72
2023-05-19T11:00:11.670Z,42.08
2023-05-19T11:02:43.182Z,41.49
2023-05-19T11:05:16.271Z,40.76
2023-05-19T11:07:47.793Z,40.68
2023-05-19T11:10:22.429Z,41.04
2023-05-19T11:15:18.597Z,40.82
2023-05-19T11:17:48.901Z,40.42
2023-05-19T11:20:26.998Z,40.49
2023-05-19T11:23:05.801Z,40.39
2023-05-19T11:25:44.747Z,40.49
2023-05-19T11:28:14.416Z,40.85
2023-05-19T11:30:46.836Z,40.63
2023-05-19T11:33:14.133Z,39.95
2023-05-19T11:35:41.434Z,40.62
2023-05-19T11:38:08.708Z,39.63
2023-05-19T11:40:35.862Z,39.20
2023-05-19T11:43:02.675Z,39.72
2023-05-19T11:45:32.681Z,39.14
2023-05-19T11:48:03.154Z,38.59
2023-05-19T11:50:31.875Z,39.75
2023-05-19T11:53:00.948Z,39.28
2023-05-19T11:55:27.928Z,39.71
2023-05-19T11:58:03.970Z,39.38
2023-05-19T12:00:39.320Z,38.89
2023-05-19T12:03:06.871Z,39.02
2023-05-19T12:05:39.945Z,38.76
2023-05-19T12:08:08.979Z,37.57
2023-05-19T12:10:35.913Z,38.05
2023-05-19T12:13:06.313Z,38.25
2023-05-19T12:15:33.706Z,38.23
2023-05-19T12:18:02.125Z,37.52
2023-05-19T12:20:35.627Z,37.26
2023-05-19T12:23:03.696Z,37.63
2023-05-19T12:25:31.744Z,37.09
2023-05-19T12:28:00.477Z,37.27
2023-05-19T12:30:29.004Z,37.30
2023-05-19T12:32:57.838Z,37.37
2023-05-19T12:35:30.040Z,37.72
2023-05-19T12:37:57.712Z,37.81
2023-05-19T12:40:26.206Z,37.75
2023-05-19T12:42:59.110Z,37.93
2023-05-19T12:45:28.320Z,38.10
2023-05-19T12:47:56.209Z,38.41
2023-05-19T12:50:31.401Z,37.90
2023-05-19T12:52:59.898Z,37.84
2023-05-19T12:55:26.848Z,37.62
2023-05-19T12:57:59.551Z,37.71
2023-05-19T13:00:29.011Z,38.04
2023-05-19T13:03:01.756Z,37.47
2023-05-19T13:05:30.433Z,37.63
2023-05-19T13:07:58.866Z,36.96
2023-05-19T13:10:29.744Z,37.53
2023-05-19T13:12:57.042Z,37.46
2023-05-19T13:15:26.151Z,37.68
2023-05-19T13:17:54.122Z,38.03
2023-05-19T13:20:21.892Z,37.65
2023-05-19T13:22:49.615Z,38.13
2023-05-19T13:25:16.383Z,38.11
2023-05-19T13:27:45.974Z,36.93
2023-05-19T13:30:18.636Z,36.90
2023-05-19T13:32:46.014Z,36.94
2023-05-19T13:35:14.999Z,37.75
2023-05-19T13:37:42.748Z,36.87
2023-05-19T13:40:10.176Z,36.94
2023-05-19T13:42:37.011Z,36.75
2023-05-19T13:45:05.112Z,36.44
2023-05-19T13:47:32.186Z,36.80
2023-05-19T13:49:58.858Z,35.81
2023-05-19T13:52:28.141Z,35.66
2023-05-19T13:54:56.684Z,35.46
2023-05-19T13:57:24.053Z,35.77
2023-05-19T14:00:01.759Z,36.22
2023-05-19T14:02:39.612Z,35.91
2023-05-19T14:05:07.493Z,36.29
2023-05-19T14:07:35.126Z,36.21
2023-05-19T14:10:03.938Z,35.95
2023-05-19T14:12:41.593Z,36.37
2023-05-19T14:15:17.632Z,36.44
2023-05-19T14:17:44.432Z,36.47
2023-05-19T14:20:12.090Z,36.42
2023-05-19T14:22:38.683Z,36.23
2023-05-19T14:25:05.959Z,36.22
2023-05-19T14:27:34.594Z,36.71
2023-05-19T14:30:01.366Z,36.20
2023-05-19T14:32:30.210Z,36.40
2023-05-19T14:34:57.462Z,36.47
2023-05-19T14:37:26.524Z,35.87
2023-05-19T14:39:53.591Z,36.19
2023-05-19T14:42:20.124Z,36.20
2023-05-19T14:44:46.833Z,36.50
2023-05-19T14:47:13.852Z,36.43
2023-05-19T14:49:40.770Z,36.44
2023-05-19T14:52:07.512Z,36.73
2023-05-19T14:54:34.373Z,36.97
2023-05-19T14:57:01.638Z,36.70
2023-05-19T14:59:29.718Z,36.38
2023-05-19T15:01:56.332Z,36.24
2023-05-19T15:04:23.263Z,36.50
2023-05-19T15:06:58.130Z,35.87
2023-05-19T15:09:32.422Z,35.55
2023-05-19T15:12:01.277Z,35.33
2023-05-19T15:14:30.478Z,35.04
2023-05-19T15:16:58.044Z,34.99
2023-05-19T15:19:25.034Z,35.09
2023-05-19T15:21:51.775Z,35.14
2023-05-19T15:24:19.172Z,35.28
2023-05-19T15:26:47.180Z,35.32
2023-05-19T15:29:13.885Z,35.29
2023-05-19T15:31:40.729Z,35.75
2023-05-19T15:34:07.531Z,35.32
2023-05-19T15:36:34.246Z,35.53
2023-05-19T15:39:01.039Z,35.58
2023-05-19T15:41:27.994Z,35.24
2023-05-19T15:43:54.908Z,35.12
2023-05-19T15:46:21.674Z,34.92
2023-05-19T15:48:48.312Z,34.73
2023-05-19T15:51:15.063Z,34.55
2023-05-19T15:53:42.057Z,34.61
2023-05-19T15:56:08.997Z,34.72
2023-05-19T15:58:35.855Z,35.24
2023-05-19T16:01:02.986Z,35.26
2023-05-19T16:03:30.231Z,34.72
2023-05-19T16:05:57.158Z,34.59
2023-05-19T16:08:24.060Z,34.73
2023-05-19T16:10:51.903Z,35.53
2023-05-19T16:13:18.799Z,35.30
2023-05-19T16:15:45.803Z,35.95
2023-05-19T16:18:14.073Z,36.21
2023-05-19T16:20:41.060Z,35.79
2023-05-19T16:23:08.003Z,36.25
2023-05-19T16:25:34.826Z,36.50
2023-05-19T16:28:01.731Z,36.32
2023-05-19T16:30:28.592Z,36.73
2023-05-19T16:32:55.449Z,36.54
2023-05-19T16:35:22.355Z,36.81
2023-05-19T16:37:49.214Z,37.08
2023-05-19T16:40:15.885Z,36.81
2023-05-19T16:42:42.719Z,36.95
2023-05-19T16:45:10.005Z,36.74
2023-05-19T16:47:36.938Z,36.88
2023-05-19T16:50:04.227Z,36.92
2023-05-19T16:52:31.121Z,37.00
2023-05-19T16:54:57.978Z,36.87
2023-05-19T16:57:24.639Z,37.05
2023-05-19T16:59:51.426Z,36.24
2023-05-19T17:02:18.499Z,36.55
2023-05-19T17:04:45.175Z,36.35
2023-05-19T17:07:15.748Z,36.73
2023-05-19T17:09:43.449Z,36.85
2023-05-19T17:12:10.941Z,36.29
2023-05-19T17:14:37.784Z,36.49
2023-05-19T17:17:04.867Z,35.73
2023-05-19T17:19:32.037Z,35.98
2023-05-19T17:22:02.115Z,35.89
2023-05-19T17:24:29.088Z,36.41
2023-05-19T17:26:55.859Z,36.44
2023-05-19T17:29:22.600Z,36.95
2023-05-19T17:31:49.339Z,36.92
2023-05-19T17:34:16.018Z,35.86
2023-05-19T17:36:42.822Z,36.90
2023-05-19T17:39:09.500Z,36.42
2023-05-19T17:41:36.394Z,37.73
2023-05-19T17:44:03.895Z,38.07
2023-05-19T17:46:34.681Z,38.01
2023-05-19T17:49:02.006Z,38.26
2023-05-19T17:51:29.057Z,38.75
2023-05-19T17:53:55.915Z,39.05
2023-05-19T17:56:23.009Z,39.31
2023-05-19T17:58:50.066Z,39.70
2023-05-19T18:01:18.068Z,39.91
2023-05-19T18:03:49.523Z,39.92
2023-05-19T18:06:20.645Z,40.55
2023-05-19T18:08:50.576Z,39.82
2023-05-19T18:11:18.575Z,40.15
2023-05-19T18:13:45.604Z,39.96
2023-05-19T18:16:12.721Z,39.79
2023-05-19T18:18:43.590Z,40.29
2023-05-19T18:21:17.978Z,40.28
2023-05-19T18:23:45.805Z,40.53
2023-05-19T18:26:16.070Z,40.83
2023-05-19T18:28:43.389Z,40.87
2023-05-19T18:31:15.836Z,41.20
2023-05-19T18:33:43.225Z,41.50
2023-05-19T18:36:10.105Z,41.78
2023-05-19T18:38:36.782Z,42.15
2023-05-19T18:41:03.380Z,42.76
2023-05-19T18:43:32.359Z,43.04
2023-05-19T18:45:59.086Z,43.02
2023-05-19T18:48:25.922Z,43.38
2023-05-19T18:50:52.735Z,44.23
2023-05-19T18:53:21.279Z,44.04
2023-05-19T18:55:47.939Z,44.87
2023-05-19T18:58:18.404Z,44.90
2023-05-19T19:00:45.324Z,45.35
2023-05-19T19:03:12.188Z,45.44
2023-05-19T19:05:39.863Z,45.66
2023-05-19T19:08:06.619Z,45.61
2023-05-19T19:10:34.768Z,45.88
2023-05-19T19:13:02.008Z,46.45
2023-05-19T19:15:28.833Z,46.63
2023-05-19T19:17:55.483Z,46.92
2023-05-19T19:20:22.188Z,46.97
2023-05-19T19:22:48.788Z,47.53
2023-05-19T19:25:15.699Z,47.76
2023-05-19T19:27:42.580Z,48.28
2023-05-19T19:30:09.561Z,48.15
2023-05-19T19:32:36.294Z,48.52
2023-05-19T19:35:02.969Z,49.00
2023-05-19T19:37:29.628Z,49.11
2023-05-19T19:39:56.252Z,49.20
2023-05-19T19:42:23.102Z,49.54
2023-05-19T19:44:49.841Z,50.21
2023-05-19T19:47:16.554Z,50.39
2023-05-19T19:49:43.238Z,50.39
2023-05-19T19:52:10.068Z,50.53
2023-05-19T19:54:36.935Z,50.65
2023-05-19T19:57:04.145Z,50.99
2023-05-19T19:59:31.222Z,51.21
2023-05-19T20:01:58.647Z,51.31
2023-05-19T20:04:25.580Z,51.57
2023-05-19T20:06:52.606Z,52.03
2023-05-19T20:09:22.293Z,52.33
2023-05-19T20:11:49.586Z,52.48
2023-05-19T20:14:18.839Z,52.88
2023-05-19T20:16:46.766Z,52.66
2023-05-19T20:19:16.618Z,53.57
2023-05-19T20:21:43.573Z,53.81
2023-05-19T20:24:10.679Z,54.35
2023-05-19T20:26:37.479Z,54.53
2023-05-19T20:29:04.234Z,54.85
2023-05-19T20:31:30.973Z,54.62
2023-05-19T20:33:59.379Z,55.33
2023-05-19T20:36:27.660Z,55.84
2023-05-19T20:38:54.582Z,56.11
2023-05-19T20:41:22.540Z,56.67
2023-05-19T20:43:49.421Z,58.18
2023-05-19T20:46:16.352Z,58.34
2023-05-19T20:48:43.071Z,59.11
2023-05-19T20:51:09.847Z,59.79
2023-05-19T20:53:36.910Z,60.69
2023-05-19T20:56:05.553Z,61.02
2023-05-19T20:58:32.665Z,62.37
2023-05-19T21:00:59.644Z,61.70
2023-05-19T21:03:30.370Z,62.08
2023-05-19T21:05:57.281Z,62.25
2023-05-19T21:08:25.655Z,63.48
2023-05-19T21:10:52.729Z,62.96
2023-05-19T21:13:24.965Z,63.79
2023-05-19T21:15:51.953Z,64.44
2023-05-19T21:18:21.387Z,63.82
2023-05-19T21:20:48.520Z,64.57
2023-05-19T21:23:15.412Z,65.25
2023-05-19T21:25:44.517Z,65.22
2023-05-19T21:28:11.963Z,65.17
2023-05-19T21:30:38.621Z,65.50
2023-05-19T21:33:05.421Z,65.22
2023-05-19T21:35:32.291Z,65.10
2023-05-19T21:38:03.910Z,65.56
2023-05-19T21:40:37.798Z,65.27
2023-05-19T21:43:06.057Z,65.63
2023-05-19T21:45:32.786Z,66.00
2023-05-19T21:47:59.574Z,65.52
2023-05-19T21:50:27.086Z,64.98
2023-05-19T21:52:54.039Z,64.44
2023-05-19T21:55:32.100Z,64.49
2023-05-19T21:58:00.871Z,64.46
2023-05-19T22:00:33.255Z,64.67
2023-05-19T22:03:00.788Z,64.50
2023-05-19T22:05:30.383Z,64.68
2023-05-19T22:07:57.628Z,64.50
2023-05-19T22:10:24.447Z,64.14
2023-05-19T22:12:51.418Z,64.04
2023-05-19T22:15:18.590Z,64.29
2023-05-19T22:17:45.627Z,64.03
2023-05-19T22:20:12.673Z,64.18
2023-05-19T22:22:39.608Z,64.38
2023-05-19T22:25:06.981Z,64.83
2023-05-19T22:27:33.994Z,64.53
2023-05-19T22:30:01.026Z,64.70
2023-05-19T22:32:28.017Z,65.29
2023-05-19T22:34:55.009Z,65.97
2023-05-19T22:37:23.920Z,65.49
2023-05-19T22:39:51.495Z,65.48
2023-05-19T22:42:18.724Z,65.58
2023-05-19T22:44:45.880Z,65.01
2023-05-19T22:47:13.950Z,65.93
2023-05-19T22:49:41.567Z,65.65
2023-05-19T22:52:10.526Z,65.66
2023-05-19T22:54:37.707Z,65.84
2023-05-19T22:57:05.156Z,65.74
2023-05-19T22:59:32.071Z,65.98
2023-05-19T23:01:58.717Z,66.31
2023-05-19T23:04:25.325Z,66.49
2023-05-19T23:06:52.444Z,67.18
2023-05-19T23:09:19.192Z,66.91
2023-05-19T23:11:46.249Z,67.31
2023-05-19T23:14:13.115Z,67.43
2023-05-19T23:16:40.313Z,67.49
2023-05-19T23:19:07.189Z,67.47
2023-05-19T23:21:33.955Z,68.13
2023-05-19T23:24:00.652Z,68.15
2023-05-19T23:26:27.412Z,68.00
2023-05-19T23:28:54.033Z,68.27
2023-05-19T23:31:20.646Z,68.70
2023-05-19T23:33:47.459Z,69.02
2023-05-19T23:36:14.514Z,69.11
2023-05-19T23:38:41.255Z,69.93
2023-05-19T23:41:08.388Z,69.95
2023-05-19T23:43:35.129Z,70.24
2023-05-19T23:46:01.940Z,69.83
2023-05-19T23:48:29.449Z,70.70
2023-05-19T23:50:57.464Z,71.12
2023-05-19T23:53:24.582Z,71.53
2023-05-19T23:55:51.678Z,71.32
2023-05-19T23:58:19.098Z,72.11
